Time;durP1;ratioP1;P1;durP2;ratioP2;P2;SDS_P1;SDS_P2;PMS_P1;PMS_P2;Temp;Humidity;BMP_temperature;BMP_pressure;BME280_temperature;BME280_humidity;BME280_pressure;Samples;Min_cycle;Max_cycle;Signal;HPM_P1;HPM_P2
2022/06/04 00:00:34;;;;;;;9.13;6.53;;;20.10;99.90;;;;;;5107748;28;20023;-75
2022/06/04 00:02:59;;;;;;;9.73;6.35;;;20.10;99.90;;;;;;5098076;28;20434;-74
2022/06/04 00:05:28;;;;;;;9.05;6.53;;;19.90;99.90;;;;;;5097820;28;20027;-74
2022/06/04 00:07:59;;;;;;;6.93;5.70;;;19.90;99.90;;;;;;5116236;28;20062;-74
2022/06/04 00:16:02;;;;;;;10.05;7.07;;;20.00;99.90;;;;;;5115697;28;20440;-74
2022/06/04 00:18:28;;;;;;;8.10;5.78;;;19.90;99.90;;;;;;5097721;28;20361;-74
2022/06/04 00:20:54;;;;;;;7.05;5.75;;;19.90;99.90;;;;;;5096976;28;20122;-73
2022/06/04 00:23:21;;;;;;;7.35;5.82;;;19.80;99.90;;;;;;5115543;28;20035;-74
2022/06/04 00:25:50;;;;;;;6.72;5.65;;;19.80;99.90;;;;;;5114949;28;20031;-74
2022/06/04 00:28:17;;;;;;;6.95;5.85;;;19.80;99.90;;;;;;5115337;28;20430;-74
2022/06/04 00:30:43;;;;;;;6.72;5.65;;;19.80;99.90;;;;;;5088850;28;20027;-73
2022/06/04 00:33:09;;;;;;;7.05;5.90;;;19.70;99.90;;;;;;5114973;28;20036;-74
2022/06/04 00:35:35;;;;;;;8.02;6.55;;;19.70;99.90;;;;;;5096391;28;20031;-74
2022/06/04 00:38:02;;;;;;;10.15;7.05;;;19.70;99.90;;;;;;5115628;28;20452;-74
2022/06/04 00:40:31;;;;;;;9.68;6.60;;;19.70;99.90;;;;;;5097420;28;20023;-74
2022/06/04 00:42:57;;;;;;;8.75;6.93;;;19.70;99.90;;;;;;5115521;28;20088;-75
2022/06/04 00:45:28;;;;;;;10.48;6.72;;;19.70;99.90;;;;;;5097099;28;20596;-75
2022/06/04 00:47:54;;;;;;;10.32;7.50;;;19.70;99.90;;;;;;5114928;28;20032;-75
2022/06/04 00:50:22;;;;;;;9.48;7.30;;;19.70;99.90;;;;;;5115005;28;20372;-75
2022/06/04 00:52:50;;;;;;;12.80;6.82;;;19.70;99.90;;;;;;5095763;28;20370;-74
2022/06/04 00:55:17;;;;;;;9.75;6.80;;;19.70;99.90;;;;;;5096323;28;20038;-75
2022/06/04 00:57:51;;;;;;;8.25;6.18;;;19.70;99.90;;;;;;5114612;28;20049;-74
2022/06/04 01:00:22;;;;;;;8.25;6.82;;;19.70;99.90;;;;;;5088799;28;20036;-74
2022/06/04 01:02:56;;;;;;;10.55;7.10;;;19.70;99.90;;;;;;5114066;28;20024;-74
2022/06/04 01:05:44;;;;;;;10.77;7.00;;;19.60;99.90;;;;;;5096734;28;20037;-74
2022/06/04 01:08:09;;;;;;;9.68;6.97;;;19.60;99.90;;;;;;5096454;28;20030;-74
2022/06/04 01:11:12;;;;;;;10.80;7.05;;;19.60;99.90;;;;;;5095633;28;20118;-74
2022/06/04 01:13:41;;;;;;;9.90;6.30;;;19.60;99.90;;;;;;5113658;28;20051;-74
2022/06/04 01:16:06;;;;;;;10.02;6.85;;;19.60;99.90;;;;;;5114308;28;20081;-74
2022/06/04 01:18:41;;;;;;;10.70;6.90;;;19.50;99.90;;;;;;5114142;28;20044;-75
2022/06/04 01:21:22;;;;;;;11.77;7.15;;;19.50;99.90;;;;;;5096330;28;20030;-74
2022/06/04 01:23:59;;;;;;;7.35;6.18;;;19.50;99.90;;;;;;5095922;28;20147;-73
2022/06/04 01:26:34;;;;;;;9.32;6.60;;;19.40;99.90;;;;;;5098540;28;20377;-73
2022/06/04 01:29:18;;;;;;;9.05;7.00;;;19.40;99.90;;;;;;5096239;28;20035;-73
2022/06/04 01:31:58;;;;;;;9.88;6.80;;;19.30;99.90;;;;;;5095211;28;20054;-74
2022/06/04 01:34:32;;;;;;;9.40;6.82;;;19.40;99.90;;;;;;5097952;28;20024;-75
2022/06/04 01:37:18;;;;;;;8.00;7.10;;;19.40;99.90;;;;;;5114539;28;20024;-75
2022/06/04 01:42:34;;;;;;;11.07;7.95;;;19.30;99.90;;;;;;5099216;28;20026;-75
2022/06/04 01:45:02;;;;;;;10.98;7.03;;;19.30;99.90;;;;;;5096204;28;20102;-75
2022/06/04 01:47:29;;;;;;;11.20;6.95;;;19.30;99.90;;;;;;5095862;28;20032;-74
2022/06/04 01:49:57;;;;;;;8.35;6.85;;;19.30;99.90;;;;;;5094999;28;20036;-75
2022/06/04 01:52:50;;;;;;;8.15;7.05;;;19.20;99.90;;;;;;5094927;28;20019;-75
2022/06/04 01:55:24;;;;;;;10.95;7.45;;;19.20;99.90;;;;;;5109615;28;20044;-75
2022/06/04 01:58:16;;;;;;;9.65;7.68;;;19.20;99.90;;;;;;5113453;28;20020;-74
2022/06/04 02:00:46;;;;;;;12.05;8.88;;;19.10;99.90;;;;;;5107861;28;20076;-74
2022/06/04 02:03:21;;;;;;;13.40;8.27;;;19.10;99.90;;;;;;5113652;28;20469;-74
2022/06/04 02:06:09;;;;;;;12.27;8.75;;;19.10;99.90;;;;;;5113788;28;20039;-74
2022/06/04 02:08:46;;;;;;;12.35;8.45;;;19.10;99.90;;;;;;5080709;28;20020;-74
2022/06/04 02:11:21;;;;;;;12.75;8.45;;;19.10;99.90;;;;;;5112943;28;20024;-74
2022/06/04 02:13:49;;;;;;;13.82;8.20;;;19.10;99.90;;;;;;5102978;28;20378;-74
2022/06/04 02:16:27;;;;;;;13.45;8.60;;;19.10;99.90;;;;;;5111976;28;20516;-74
2022/06/04 02:18:55;;;;;;;14.73;8.52;;;19.10;99.90;;;;;;5111935;28;20091;-74
2022/06/04 02:21:21;;;;;;;10.20;8.70;;;19.10;99.90;;;;;;5112134;28;20031;-73
2022/06/04 02:23:47;;;;;;;10.40;8.27;;;19.10;99.90;;;;;;5111437;28;20028;-74
2022/06/04 02:26:15;;;;;;;9.43;7.80;;;19.10;99.90;;;;;;5112189;28;20027;-74
2022/06/04 02:28:41;;;;;;;12.05;8.73;;;19.10;99.90;;;;;;5112569;28;20038;-74
2022/06/04 02:31:17;;;;;;;10.80;7.72;;;19.10;99.90;;;;;;5103378;28;20023;-75
2022/06/04 02:34:02;;;;;;;9.68;7.63;;;19.10;99.90;;;;;;5110829;28;20066;-75
2022/06/04 02:36:46;;;;;;;11.20;7.55;;;19.10;99.90;;;;;;5096167;28;20031;-75
2022/06/04 02:39:20;;;;;;;11.50;7.85;;;19.10;99.90;;;;;;5111951;28;20034;-74
2022/06/04 02:42:05;;;;;;;12.40;8.23;;;19.10;99.90;;;;;;5111457;28;20031;-74
2022/06/04 02:44:38;;;;;;;10.48;7.90;;;19.00;99.90;;;;;;5096970;28;20023;-73
2022/06/04 02:47:39;;;;;;;10.18;7.55;;;19.00;99.90;;;;;;5111853;28;20229;-75
2022/06/04 02:50:12;;;;;;;11.20;7.70;;;18.90;99.90;;;;;;5111365;28;20366;-74
2022/06/04 02:52:38;;;;;;;10.98;8.18;;;19.00;99.90;;;;;;5110471;28;20020;-74
2022/06/04 02:55:18;;;;;;;9.80;8.35;;;18.90;99.90;;;;;;5111174;28;20545;-73
2022/06/04 02:57:49;;;;;;;9.65;7.43;;;18.90;99.90;;;;;;5112528;28;20476;-74
2022/06/04 03:00:17;;;;;;;9.20;7.95;;;18.90;99.90;;;;;;5112892;28;20488;-74
2022/06/04 03:02:44;;;;;;;11.23;7.40;;;18.80;99.90;;;;;;5111211;28;20024;-75
2022/06/04 03:05:19;;;;;;;10.85;8.13;;;18.80;99.90;;;;;;5111588;28;20031;-75
2022/06/04 03:07:49;;;;;;;9.68;7.88;;;18.80;99.90;;;;;;5111258;28;20038;-75
2022/06/04 03:10:22;;;;;;;11.98;8.35;;;18.70;99.90;;;;;;5112471;28;20027;-75
2022/06/04 03:12:48;;;;;;;10.23;8.88;;;18.70;99.90;;;;;;5111516;28;20096;-75
2022/06/04 03:15:15;;;;;;;10.93;7.85;;;18.70;99.90;;;;;;5112175;28;20106;-75
2022/06/04 03:17:42;;;;;;;10.55;8.57;;;18.60;99.90;;;;;;5093721;28;20034;-75
2022/06/04 03:20:09;;;;;;;10.35;8.18;;;18.50;99.90;;;;;;5112636;28;20046;-75
2022/06/04 03:22:35;;;;;;;10.48;8.30;;;18.50;99.90;;;;;;5112684;28;20112;-74
2022/06/04 03:25:01;;;;;;;9.60;7.63;;;18.50;99.90;;;;;;5094236;28;20032;-74
2022/06/04 03:27:27;;;;;;;9.35;7.97;;;18.50;99.90;;;;;;5112511;28;20019;-74
2022/06/04 03:29:52;;;;;;;11.52;8.30;;;18.50;99.90;;;;;;5085888;28;20024;-75
2022/06/04 03:32:19;;;;;;;10.18;8.00;;;18.50;99.90;;;;;;5112083;28;20031;-75
2022/06/04 03:34:45;;;;;;;10.43;7.78;;;18.50;99.90;;;;;;5093103;28;20031;-75
2022/06/04 03:37:10;;;;;;;11.48;8.45;;;18.60;99.90;;;;;;5112025;28;20030;-76
2022/06/04 03:39:36;;;;;;;10.07;8.10;;;18.50;99.90;;;;;;5093755;28;20096;-77
2022/06/04 03:42:02;;;;;;;9.48;7.97;;;18.50;99.90;;;;;;5112170;28;20020;-75
2022/06/04 03:44:28;;;;;;;10.88;7.70;;;18.50;99.90;;;;;;5112252;28;20049;-74
2022/06/04 03:46:54;;;;;;;9.07;7.35;;;18.50;99.90;;;;;;5112013;28;20020;-75
2022/06/04 03:49:20;;;;;;;9.93;7.90;;;18.50;99.90;;;;;;5094094;28;20058;-75
2022/06/04 03:51:45;;;;;;;11.13;7.90;;;18.50;99.90;;;;;;5111341;28;20043;-75
2022/06/04 03:54:12;;;;;;;11.98;7.97;;;18.50;99.90;;;;;;5092987;28;20035;-75
2022/06/04 03:56:37;;;;;;;10.13;7.53;;;18.60;99.90;;;;;;5093128;28;20036;-75
2022/06/04 03:59:04;;;;;;;9.65;7.80;;;18.50;99.90;;;;;;5093969;28;20512;-75
2022/06/04 04:01:30;;;;;;;11.02;7.47;;;18.60;99.90;;;;;;5094008;28;20042;-75
2022/06/04 04:03:58;;;;;;;9.48;7.50;;;18.60;99.90;;;;;;5111700;28;20035;-74
2022/06/04 04:06:30;;;;;;;8.25;6.97;;;18.60;99.90;;;;;;5094167;28;20024;-74
2022/06/04 04:08:57;;;;;;;12.23;7.97;;;18.60;99.90;;;;;;5093565;28;20030;-74
2022/06/04 04:11:25;;;;;;;9.25;7.82;;;18.60;99.90;;;;;;5093425;28;20079;-75
2022/06/04 04:13:52;;;;;;;10.10;8.15;;;18.70;99.90;;;;;;5102911;28;20100;-74
2022/06/04 04:16:19;;;;;;;9.70;7.40;;;18.70;99.90;;;;;;5110182;28;20031;-75
2022/06/04 04:18:45;;;;;;;8.77;7.80;;;18.70;99.90;;;;;;5110329;28;20027;-74
2022/06/04 04:21:13;;;;;;;8.98;7.55;;;18.70;99.90;;;;;;5112041;28;20020;-75
2022/06/04 04:23:40;;;;;;;9.02;7.28;;;18.60;99.90;;;;;;5111401;28;20084;-75
2022/06/04 04:26:08;;;;;;;10.23;6.95;;;18.70;99.90;;;;;;5110958;28;20077;-75
2022/06/04 04:28:34;;;;;;;9.85;7.30;;;18.70;99.90;;;;;;5110956;28;20058;-75
2022/06/04 04:31:00;;;;;;;11.07;7.55;;;18.70;99.90;;;;;;5111170;28;20023;-75
2022/06/04 04:33:26;;;;;;;9.80;6.65;;;18.70;99.90;;;;;;5109891;28;20038;-75
2022/06/04 04:35:52;;;;;;;9.48;6.55;;;18.70;99.90;;;;;;5111036;28;20107;-75
2022/06/04 04:38:18;;;;;;;8.27;6.43;;;18.80;99.90;;;;;;5113241;28;20464;-75
2022/06/04 04:40:45;;;;;;;8.27;6.75;;;18.90;99.90;;;;;;5115094;28;20038;-75
2022/06/04 04:43:11;;;;;;;7.25;6.15;;;18.90;99.90;;;;;;5114208;28;20376;-75
2022/06/04 04:45:37;;;;;;;9.35;6.45;;;19.00;99.90;;;;;;5115646;28;20020;-75
2022/06/04 04:48:03;;;;;;;8.35;6.55;;;19.10;99.90;;;;;;5113490;28;20030;-75
2022/06/04 04:50:36;;;;;;;8.48;6.43;;;19.10;99.90;;;;;;5115467;28;20360;-75
2022/06/04 04:53:07;;;;;;;9.63;6.30;;;19.20;99.90;;;;;;5112696;28;20040;-75
2022/06/04 04:55:33;;;;;;;13.45;6.72;;;19.20;99.90;;;;;;5113640;28;20062;-75
2022/06/04 04:58:00;;;;;;;9.70;6.40;;;19.30;99.90;;;;;;5113006;28;20542;-75
2022/06/04 05:00:27;;;;;;;8.93;6.63;;;19.30;99.90;;;;;;5113845;28;20480;-75
2022/06/04 05:02:52;;;;;;;9.55;6.35;;;19.20;99.90;;;;;;5113413;28;20396;-75
2022/06/04 05:05:18;;;;;;;8.35;5.93;;;19.20;99.90;;;;;;5115011;28;20027;-75
2022/06/04 05:07:44;;;;;;;6.97;5.35;;;19.30;99.90;;;;;;5114661;28;20201;-75
2022/06/04 05:10:12;;;;;;;7.38;6.03;;;19.40;99.90;;;;;;5113677;28;20051;-76
2022/06/04 05:12:38;;;;;;;6.93;6.13;;;19.50;99.90;;;;;;5112844;28;20055;-76
2022/06/04 05:15:05;;;;;;;8.10;6.03;;;19.50;99.90;;;;;;5112482;28;20032;-75
2022/06/04 05:17:31;;;;;;;7.47;6.03;;;19.50;99.90;;;;;;5114759;28;20028;-74
2022/06/04 05:19:56;;;;;;;6.60;5.70;;;19.50;99.90;;;;;;5112918;28;20132;-75
2022/06/04 05:22:22;;;;;;;8.82;6.13;;;19.50;99.90;;;;;;5113457;28;20023;-74
2022/06/04 05:24:48;;;;;;;8.15;5.72;;;19.60;99.90;;;;;;5114234;28;20032;-75
2022/06/04 05:27:13;;;;;;;6.55;5.85;;;19.60;99.90;;;;;;5114700;28;20392;-75
2022/06/04 05:29:39;;;;;;;8.00;6.40;;;19.60;99.90;;;;;;5113376;28;20020;-75
2022/06/04 05:32:07;;;;;;;11.02;7.47;;;19.60;99.90;;;;;;5113188;28;20034;-75
2022/06/04 05:34:33;;;;;;;10.30;7.50;;;19.50;99.90;;;;;;5112645;28;20023;-74
2022/06/04 05:36:59;;;;;;;9.52;7.35;;;19.50;99.90;;;;;;5113364;28;20039;-75
2022/06/04 05:39:25;;;;;;;8.95;7.07;;;19.50;99.90;;;;;;5113049;28;20495;-75
2022/06/04 05:41:51;;;;;;;9.85;6.85;;;19.50;99.90;;;;;;5112628;28;20051;-75
2022/06/04 05:44:19;;;;;;;10.00;7.40;;;19.50;99.90;;;;;;5114501;28;20035;-75
2022/06/04 05:46:45;;;;;;;9.85;7.38;;;19.50;99.90;;;;;;5112232;28;20052;-75
2022/06/04 05:49:12;;;;;;;9.95;7.22;;;19.50;99.90;;;;;;5112768;28;20119;-75
2022/06/04 05:51:40;;;;;;;8.75;7.10;;;19.50;99.90;;;;;;5113923;28;20028;-75
2022/06/04 05:54:06;;;;;;;11.48;7.63;;;19.50;99.90;;;;;;5112638;28;20063;-75
2022/06/04 05:56:34;;;;;;;9.57;7.63;;;19.40;99.90;;;;;;5112318;28;20517;-74
2022/06/04 05:59:02;;;;;;;10.70;8.02;;;19.50;99.90;;;;;;5112952;28;20027;-75
2022/06/04 06:01:31;;;;;;;9.93;8.80;;;19.40;99.90;;;;;;5112365;28;20133;-74
2022/06/04 06:03:57;;;;;;;12.50;9.82;;;19.40;99.90;;;;;;5111861;28;20497;-74
2022/06/04 06:06:26;;;;;;;12.52;9.35;;;19.30;99.90;;;;;;5112700;28;20024;-74
2022/06/04 06:08:53;;;;;;;12.25;9.75;;;19.30;99.90;;;;;;5113397;28;20016;-74
2022/06/04 06:11:19;;;;;;;13.00;10.23;;;19.30;99.90;;;;;;5113204;28;20058;-74
2022/06/04 06:13:47;;;;;;;13.50;10.32;;;19.30;99.90;;;;;;5112179;28;20043;-75
2022/06/04 06:16:17;;;;;;;14.48;9.00;;;19.20;99.90;;;;;;5113527;28;20033;-74
2022/06/04 06:18:43;;;;;;;11.20;9.05;;;19.30;99.90;;;;;;5094799;28;20032;-77
2022/06/04 06:21:14;;;;;;;12.52;9.85;;;19.30;99.90;;;;;;5095314;28;20028;-74
2022/06/04 06:23:40;;;;;;;11.98;8.52;;;19.30;99.90;;;;;;5095326;28;20130;-74
2022/06/04 06:26:19;;;;;;;12.50;9.93;;;19.40;99.90;;;;;;5112683;28;20031;-74
2022/06/04 06:28:45;;;;;;;13.95;10.02;;;19.40;99.90;;;;;;5094611;28;20039;-75
2022/06/04 06:31:14;;;;;;;14.57;10.30;;;19.50;99.90;;;;;;5112547;28;20469;-75
2022/06/04 06:33:40;;;;;;;12.02;10.18;;;19.60;99.90;;;;;;5112677;28;20393;-75
2022/06/04 06:36:08;;;;;;;12.40;9.80;;;19.70;99.90;;;;;;5094010;28;20028;-75
2022/06/04 06:38:34;;;;;;;12.38;9.25;;;19.70;99.90;;;;;;5094537;28;20054;-75
2022/06/04 06:41:01;;;;;;;12.20;8.90;;;19.70;99.90;;;;;;5094186;28;20031;-75
2022/06/04 06:46:07;;;;;;;15.15;9.38;;;19.70;99.90;;;;;;5112662;28;20026;-74
2022/06/04 06:48:33;;;;;;;;;;;19.80;99.90;;;;;;5095280;28;20045;-74
2022/06/04 06:51:06;;;;;;;13.68;9.40;;;19.80;99.90;;;;;;5094169;28;19957;-74
2022/06/04 06:53:32;;;;;;;14.32;10.30;;;19.90;99.90;;;;;;5112052;28;20040;-74
2022/06/04 06:55:58;;;;;;;13.63;10.60;;;19.90;99.90;;;;;;5111932;28;20028;-75
2022/06/04 06:58:24;;;;;;;14.55;9.85;;;19.80;99.90;;;;;;5094187;28;20384;-75
2022/06/04 07:00:51;;;;;;;14.27;10.52;;;19.80;99.90;;;;;;5095098;27;20032;-75
2022/06/04 07:03:18;;;;;;;21.20;14.35;;;19.80;99.90;;;;;;5121671;27;20106;-74
2022/06/04 07:05:43;;;;;;;20.42;14.40;;;19.80;99.90;;;;;;5094738;28;20111;-74
2022/06/04 07:08:09;;;;;;;19.25;11.45;;;19.80;99.90;;;;;;5099294;28;20123;-74
2022/06/04 07:10:34;;;;;;;15.43;11.18;;;19.80;99.90;;;;;;5105498;28;20027;-74
2022/06/04 07:13:00;;;;;;;12.88;9.75;;;19.80;99.90;;;;;;5085084;28;20056;-75
2022/06/04 07:15:26;;;;;;;12.15;9.52;;;20.00;99.90;;;;;;5100200;28;20093;-75
2022/06/04 07:17:51;;;;;;;15.55;11.27;;;20.00;99.90;;;;;;5102986;28;20030;-74
2022/06/04 07:20:18;;;;;;;16.52;10.60;;;20.10;99.90;;;;;;5103882;28;20028;-75
2022/06/04 07:22:44;;;;;;;12.77;10.23;;;20.20;99.90;;;;;;5103356;28;20055;-75
2022/06/04 07:25:09;;;;;;;11.25;9.38;;;20.30;99.90;;;;;;5102950;28;20475;-75
2022/06/04 07:27:35;;;;;;;12.50;10.45;;;20.30;99.90;;;;;;5102285;28;20028;-74
2022/06/04 07:30:00;;;;;;;15.82;10.98;;;20.30;99.90;;;;;;5113031;28;20457;-75
2022/06/04 07:32:26;;;;;;;13.38;9.80;;;20.30;99.90;;;;;;5125968;28;20027;-75
2022/06/04 07:34:52;;;;;;;11.35;9.52;;;20.30;99.90;;;;;;5110110;28;20110;-74
2022/06/04 07:37:17;;;;;;;14.20;10.52;;;20.40;99.90;;;;;;5110862;28;20032;-73
2022/06/04 07:39:43;;;;;;;13.07;10.07;;;20.50;99.90;;;;;;5110961;28;20525;-74
2022/06/04 07:42:08;;;;;;;11.70;9.82;;;20.50;99.90;;;;;;5110248;28;20023;-74
2022/06/04 07:44:34;;;;;;;13.65;10.18;;;20.50;99.90;;;;;;5112568;28;20043;-74
2022/06/04 07:47:00;;;;;;;14.60;10.55;;;20.50;99.90;;;;;;5110391;28;20033;-73
2022/06/04 07:49:25;;;;;;;18.05;10.98;;;20.50;99.90;;;;;;5110984;28;20067;-74
2022/06/04 07:51:52;;;;;;;13.82;10.65;;;20.60;99.90;;;;;;5106227;28;20139;-74
2022/06/04 07:54:19;;;;;;;15.07;11.27;;;20.60;99.90;;;;;;5101174;28;20032;-73
2022/06/04 07:56:44;;;;;;;17.50;11.80;;;20.60;99.90;;;;;;5110439;28;20036;-72
2022/06/04 07:59:13;;;;;;;17.20;11.63;;;20.50;99.90;;;;;;5109509;28;20038;-73
2022/06/04 08:01:39;;;;;;;14.07;10.73;;;20.60;99.90;;;;;;5111188;28;20362;-74
2022/06/04 08:04:05;;;;;;;15.88;11.40;;;20.60;99.90;;;;;;5110477;28;20034;-73
2022/06/04 08:06:31;;;;;;;16.15;10.82;;;20.50;99.90;;;;;;5110978;28;20566;-73
2022/06/04 08:08:58;;;;;;;16.73;11.70;;;20.40;99.90;;;;;;5104026;28;20484;-73
2022/06/04 08:11:36;;;;;;;15.15;11.73;;;20.40;99.90;;;;;;5102890;28;20118;-74
2022/06/04 08:14:07;;;;;;;15.73;11.02;;;20.40;99.90;;;;;;5110884;28;20419;-74
2022/06/04 08:16:37;;;;;;;17.60;12.18;;;20.40;99.90;;;;;;5115779;28;20026;-74
2022/06/04 08:19:04;;;;;;;16.87;11.70;;;20.40;99.90;;;;;;5113937;28;20345;-74
2022/06/04 08:21:32;;;;;;;15.90;11.68;;;20.40;99.90;;;;;;5114634;28;20130;-74
2022/06/04 08:23:58;;;;;;;17.85;12.40;;;20.40;99.90;;;;;;5113996;28;20035;-74
2022/06/04 08:26:24;;;;;;;16.27;12.23;;;20.40;99.90;;;;;;5114406;28;20031;-74
2022/06/04 08:28:50;;;;;;;16.27;11.23;;;20.50;99.90;;;;;;5114136;28;20027;-73
2022/06/04 08:31:16;;;;;;;17.15;11.68;;;20.50;99.90;;;;;;5106503;28;20019;-74
2022/06/04 08:33:43;;;;;;;16.55;12.50;;;20.50;99.90;;;;;;5113981;28;20092;-74
2022/06/04 08:36:11;;;;;;;17.63;11.60;;;20.50;99.90;;;;;;5114590;28;20024;-73
2022/06/04 08:38:37;;;;;;;15.35;12.20;;;20.50;99.90;;;;;;5115358;28;20458;-72
2022/06/04 08:41:07;;;;;;;13.15;11.30;;;20.50;99.90;;;;;;5114997;28;20038;-75
2022/06/04 08:43:50;;;;;;;17.30;11.57;;;20.50;99.90;;;;;;5114484;28;20024;-75
2022/06/04 08:46:31;;;;;;;19.73;11.35;;;20.50;99.90;;;;;;5115702;28;20031;-77
2022/06/04 08:49:02;;;;;;;14.50;10.93;;;20.50;99.90;;;;;;5115316;28;20020;-75
2022/06/04 08:51:29;;;;;;;15.53;12.50;;;20.50;99.90;;;;;;5114333;28;20118;-74
2022/06/04 08:53:58;;;;;;;17.83;12.48;;;20.60;99.90;;;;;;5112883;28;20088;-75
2022/06/04 08:59:35;;;;;;;19.92;13.63;;;20.50;99.90;;;;;;5114487;28;20073;-74
2022/06/04 09:02:04;;;;;;;19.35;13.35;;;20.50;99.90;;;;;;5114767;28;20026;-74
2022/06/04 09:04:44;;;;;;;18.02;13.15;;;20.60;99.90;;;;;;5113979;28;20136;-74
2022/06/04 09:07:15;;;;;;;17.50;12.00;;;20.60;99.90;;;;;;5113407;28;20036;-74
2022/06/04 09:09:56;;;;;;;18.10;13.00;;;20.60;99.90;;;;;;5115005;27;20019;-72
2022/06/04 09:12:39;;;;;;;15.65;12.38;;;20.70;99.90;;;;;;5097109;28;20031;-73
2022/06/04 09:15:12;;;;;;;15.65;11.88;;;20.70;99.90;;;;;;5113564;28;20032;-74
2022/06/04 09:17:54;;;;;;;19.15;12.85;;;20.80;99.90;;;;;;5096189;28;20023;-73
2022/06/04 09:20:28;;;;;;;;;;;20.80;99.90;;;;;;5094650;28;20070;-73
2022/06/04 09:23:00;;;;;;;15.60;12.10;;;20.70;99.90;;;;;;5113868;27;19907;-72
2022/06/04 09:25:33;;;;;;;15.80;12.18;;;20.70;99.90;;;;;;5114863;28;20085;-73
2022/06/04 09:28:25;;;;;;;16.83;11.93;;;20.80;99.90;;;;;;5114661;27;20028;-73
2022/06/04 09:31:06;;;;;;;19.98;12.80;;;20.80;99.90;;;;;;5056348;28;20057;-72
2022/06/04 09:33:41;;;;;;;16.00;12.00;;;20.80;99.90;;;;;;5090230;28;20127;-73
2022/06/04 09:36:11;;;;;;;16.05;11.63;;;20.80;99.90;;;;;;5113570;27;20107;-72
2022/06/04 09:38:37;;;;;;;17.17;12.68;;;20.90;99.90;;;;;;5090876;28;20023;-74
2022/06/04 09:41:18;;;;;;;16.05;11.93;;;21.00;99.90;;;;;;5085906;28;20038;-73
2022/06/04 09:43:46;;;;;;;17.33;12.23;;;21.00;99.90;;;;;;5084088;28;20031;-73
2022/06/04 09:46:13;;;;;;;19.00;12.07;;;21.10;99.90;;;;;;5111439;27;20062;-72
2022/06/04 09:48:50;;;;;;;14.48;11.55;;;21.10;99.90;;;;;;5134879;27;20023;-73
2022/06/04 09:51:21;;;;;;;17.85;11.77;;;21.20;99.90;;;;;;5093773;28;20025;-73
2022/06/04 09:53:49;;;;;;;;;;;21.30;99.90;;;;;;5075566;28;20036;-73
2022/06/04 09:56:25;;;;;;;16.38;12.38;;;21.40;99.90;;;;;;5100032;28;19919;-73
2022/06/04 09:58:51;;;;;;;15.27;11.68;;;21.30;99.90;;;;;;5087392;28;20028;-72
2022/06/04 10:01:17;;;;;;;13.95;10.90;;;21.40;99.90;;;;;;5085446;28;20024;-73
2022/06/04 10:03:45;;;;;;;15.63;11.32;;;21.40;99.90;;;;;;5094023;28;20106;-73
2022/06/04 10:06:16;;;;;;;13.65;11.00;;;21.40;99.90;;;;;;5108795;27;20020;-72
2022/06/04 10:11:56;;;;;;;17.77;10.90;;;21.40;99.90;;;;;;5107216;28;19999;-72
2022/06/04 10:14:39;;;;;;;15.48;10.95;;;21.50;99.90;;;;;;5100844;28;20496;-72
2022/06/04 10:17:20;;;;;;;12.63;10.45;;;21.50;99.90;;;;;;5111482;28;20034;-72
2022/06/04 10:19:55;;;;;;;13.65;10.18;;;21.50;99.90;;;;;;5111251;27;21106;-73
2022/06/04 10:22:22;;;;;;;12.77;10.07;;;21.60;99.90;;;;;;5112753;28;20063;-74
2022/06/04 10:24:53;;;;;;;12.93;10.00;;;21.70;99.90;;;;;;5116325;27;20042;-74
2022/06/04 10:27:40;;;;;;;13.68;10.25;;;21.80;99.90;;;;;;5100140;28;20020;-74
2022/06/04 10:30:24;;;;;;;13.05;10.25;;;21.90;99.90;;;;;;5103683;28;20019;-73
2022/06/04 10:33:32;;;;;;;13.48;10.48;;;22.00;99.90;;;;;;5101656;28;20020;-74
2022/06/04 10:36:01;;;;;;;12.52;10.27;;;22.00;99.90;;;;;;5101153;28;20027;-74
2022/06/04 10:38:44;;;;;;;13.45;10.85;;;22.10;99.90;;;;;;5100122;28;20118;-73
2022/06/04 10:41:30;;;;;;;14.07;10.55;;;22.10;99.90;;;;;;5092489;28;20035;-74
2022/06/04 10:44:14;;;;;;;13.57;10.25;;;22.20;99.90;;;;;;5099284;27;20152;-75
2022/06/04 10:47:03;;;;;;;11.60;9.20;;;22.20;99.90;;;;;;5102705;28;20175;-72
2022/06/04 10:49:50;;;;;;;13.77;9.52;;;22.40;99.90;;;;;;5102496;28;20027;-72
2022/06/04 10:52:31;;;;;;;15.02;10.40;;;22.50;99.90;;;;;;5101587;28;20365;-72
2022/06/04 10:55:15;;;;;;;11.98;9.73;;;22.50;99.90;;;;;;5102695;28;20032;-74
2022/06/04 10:58:02;;;;;;;13.45;10.13;;;22.50;99.90;;;;;;5102209;28;20028;-73
2022/06/04 11:01:06;;;;;;;12.55;9.10;;;22.60;99.90;;;;;;5103300;28;20034;-73
2022/06/04 11:03:48;;;;;;;14.55;10.27;;;22.60;99.90;;;;;;5102998;28;20484;-73
2022/06/04 11:06:24;;;;;;;12.25;9.98;;;22.60;99.90;;;;;;5101920;28;20369;-73
2022/06/04 11:08:57;;;;;;;12.98;9.70;;;22.60;99.90;;;;;;5102116;28;20023;-73
2022/06/04 11:11:29;;;;;;;13.43;9.30;;;22.60;99.90;;;;;;5104633;28;20016;-73
2022/06/04 11:14:01;;;;;;;11.32;9.23;;;22.50;99.90;;;;;;5110469;28;20492;-72
2022/06/04 11:16:36;;;;;;;;;;;22.60;99.90;;;;;;5101300;28;20038;-73
2022/06/04 11:19:19;;;;;;;11.93;8.80;;;22.60;99.90;;;;;;5100093;28;19907;-73
2022/06/04 11:22:02;;;;;;;10.60;9.35;;;22.80;99.90;;;;;;5099206;28;20444;-73
2022/06/04 11:25:03;;;;;;;12.00;9.60;;;22.90;99.90;;;;;;5101929;28;20028;-73
2022/06/04 11:27:41;;;;;;;11.13;8.88;;;23.00;99.90;;;;;;5019579;28;20042;-73
2022/06/04 11:30:17;;;;;;;13.00;9.43;;;23.10;99.90;;;;;;5090568;28;20114;-73
2022/06/04 11:32:59;;;;;;;13.18;9.50;;;23.20;99.90;;;;;;5111828;28;20031;-74
2022/06/04 11:35:44;;;;;;;12.13;9.27;;;23.20;99.90;;;;;;5112370;28;20084;-73
2022/06/04 11:38:22;;;;;;;11.55;9.23;;;23.30;99.90;;;;;;5101655;28;20038;-73
2022/06/04 11:41:21;;;;;;;12.77;8.98;;;23.40;99.90;;;;;;5108066;28;20023;-73
2022/06/04 11:44:20;;;;;;;10.60;8.43;;;23.50;99.90;;;;;;5092313;28;20089;-73
2022/06/04 11:47:06;;;;;;;10.73;8.60;;;23.60;99.90;;;;;;5101413;28;20062;-73
2022/06/04 11:49:51;;;;;;;10.23;8.95;;;23.60;99.90;;;;;;5115414;28;20072;-73
2022/06/04 11:52:31;;;;;;;13.30;9.25;;;23.50;99.90;;;;;;5114607;27;20016;-74
2022/06/04 11:55:24;;;;;;;10.48;8.65;;;23.60;99.90;;;;;;5116233;28;20039;-74
2022/06/04 11:58:10;;;;;;;11.75;9.05;;;23.40;99.90;;;;;;5114742;28;20063;-74
2022/06/04 12:00:40;;;;;;;10.48;8.25;;;23.30;99.90;;;;;;5122586;27;20027;-74
2022/06/04 12:03:15;;;;;;;11.40;8.55;;;23.30;99.90;;;;;;5133337;27;20070;-74
2022/06/04 12:05:54;;;;;;;9.88;8.45;;;23.40;99.90;;;;;;5132578;27;20024;-73
2022/06/04 12:08:25;;;;;;;10.95;8.10;;;23.60;99.90;;;;;;5118437;27;20157;-72
2022/06/04 12:11:12;;;;;;;12.15;8.55;;;23.70;99.90;;;;;;5122542;27;20023;-73
2022/06/04 12:14:12;;;;;;;11.88;7.90;;;23.90;99.90;;;;;;5121633;27;20047;-73
2022/06/04 12:16:44;;;;;;;10.70;7.65;;;24.10;99.90;;;;;;5114583;28;20479;-74
2022/06/04 12:24:15;;;;;;;9.48;8.00;;;24.30;99.90;;;;;;5115216;28;20028;-73
2022/06/04 12:25:00;;;;;;;10.48;7.60;;;24.50;99.90;;;;;;5116623;28;20396;-79
2022/06/04 12:27:26;;;;;;;10.05;7.75;;;24.50;99.80;;;;;;5125861;27;20028;-77
2022/06/04 12:29:55;;;;;;;10.52;7.95;;;24.50;99.90;;;;;;5115020;27;20035;-74
2022/06/04 12:32:30;;;;;;;12.10;8.38;;;24.40;99.90;;;;;;5125440;27;20055;-74
2022/06/04 12:35:11;;;;;;;9.15;7.10;;;24.50;99.70;;;;;;5130184;27;20542;-74
2022/06/04 12:37:50;;;;;;;;;;;24.70;99.80;;;;;;5136455;27;20041;-75
2022/06/04 12:40:19;;;;;;;8.30;6.90;;;24.80;99.50;;;;;;5111636;27;19908;-74
2022/06/04 12:43:04;;;;;;;8.70;7.80;;;25.00;99.30;;;;;;5101829;28;20036;-74
2022/06/04 12:45:38;;;;;;;9.45;6.43;;;25.10;98.70;;;;;;5098971;28;20034;-74
2022/06/04 12:48:24;;;;;;;10.88;8.35;;;25.20;98.90;;;;;;5113522;28;20027;-76
2022/06/04 12:50:58;;;;;;;10.40;7.68;;;25.30;98.20;;;;;;5101934;28;20016;-74
2022/06/04 12:53:26;;;;;;;7.55;6.78;;;25.40;98.00;;;;;;5093275;28;20104;-74
2022/06/04 12:56:21;;;;;;;11.38;7.80;;;25.60;97.80;;;;;;5093581;28;20031;-74
2022/06/04 12:58:53;;;;;;;8.70;6.55;;;25.70;97.20;;;;;;5109680;28;20090;-74
2022/06/04 13:01:19;;;;;;;8.05;6.45;;;25.50;97.60;;;;;;5097203;28;20401;-75
2022/06/04 13:03:49;;;;;;;7.90;5.85;;;25.50;98.00;;;;;;5098867;28;20484;-76
2022/06/04 13:06:27;;;;;;;8.55;6.43;;;25.50;97.80;;;;;;5093536;28;20028;-76
2022/06/04 13:09:04;;;;;;;8.98;6.97;;;25.60;97.60;;;;;;5106915;27;20028;-75
2022/06/04 13:11:54;;;;;;;7.68;6.45;;;26.10;97.00;;;;;;5102213;28;20059;-76
2022/06/04 13:14:42;;;;;;;7.55;6.57;;;26.60;96.30;;;;;;5106878;28;20040;-76
2022/06/04 13:17:32;;;;;;;8.05;5.50;;;27.20;95.20;;;;;;5102386;28;20668;-74
2022/06/04 13:20:10;;;;;;;7.60;6.20;;;27.50;94.30;;;;;;5103957;28;20023;-74
2022/06/04 13:22:51;;;;;;;8.10;5.50;;;27.60;93.30;;;;;;5109065;28;20489;-78